sensor_id;sensor_type;location;lat;lon;timestamp;P1;durP1;ratioP1;P2;durP2;ratioP2
20336;SDS011;10326;53.660;10.200;2023-12-20T00:00:23;10.10;;;2.65;;
20336;SDS011;10326;53.660;10.200;2023-12-20T00:02:50;7.68;;;2.25;;
20336;SDS011;10326;53.660;10.200;2023-12-20T00:05:18;10.80;;;2.50;;
20336;SDS011;10326;53.660;10.200;2023-12-20T00:07:45;11.55;;;2.78;;
20336;SDS011;10326;53.660;10.200;2023-12-20T00:10:12;8.98;;;2.60;;
20336;SDS011;10326;53.660;10.200;2023-12-20T00:12:39;9.73;;;2.63;;
20336;SDS011;10326;53.660;10.200;2023-12-20T00:15:07;6.60;;;2.30;;
20336;SDS011;10326;53.660;10.200;2023-12-20T00:17:34;9.18;;;2.38;;
20336;SDS011;10326;53.660;10.200;2023-12-20T00:20:01;7.10;;;2.38;;
20336;SDS011;10326;53.660;10.200;2023-12-20T00:22:30;8.15;;;2.45;;
20336;SDS011;10326;53.660;10.200;2023-12-20T00:24:57;10.35;;;2.10;;
20336;SDS011;10326;53.660;10.200;2023-12-20T00:27:24;6.82;;;2.10;;
20336;SDS011;10326;53.660;10.200;2023-12-20T00:29:51;7.75;;;2.50;;
20336;SDS011;10326;53.660;10.200;2023-12-20T00:32:18;10.40;;;2.17;;
20336;SDS011;10326;53.660;10.200;2023-12-20T00:34:45;9.25;;;2.50;;
20336;SDS011;10326;53.660;10.200;2023-12-20T00:37:12;9.18;;;2.50;;
20336;SDS011;10326;53.660;10.200;2023-12-20T00:39:40;7.72;;;2.70;;
20336;SDS011;10326;53.660;10.200;2023-12-20T00:42:07;7.68;;;2.08;;
20336;SDS011;10326;53.660;10.200;2023-12-20T00:44:35;9.30;;;2.05;;
20336;SDS011;10326;53.660;10.200;2023-12-20T00:47:02;8.35;;;2.30;;
20336;SDS011;10326;53.660;10.200;2023-12-20T00:49:29;10.40;;;2.13;;
20336;SDS011;10326;53.660;10.200;2023-12-20T00:51:56;10.35;;;2.70;;
20336;SDS011;10326;53.660;10.200;2023-12-20T00:54:23;11.88;;;2.10;;
20336;SDS011;10326;53.660;10.200;2023-12-20T00:56:52;6.68;;;1.88;;
20336;SDS011;10326;53.660;10.200;2023-12-20T00:59:19;9.63;;;1.83;;
20336;SDS011;10326;53.660;10.200;2023-12-20T01:01:46;9.80;;;2.22;;
20336;SDS011;10326;53.660;10.200;2023-12-20T01:04:13;7.38;;;2.40;;
20336;SDS011;10326;53.660;10.200;2023-12-20T01:06:40;10.05;;;2.10;;
20336;SDS011;10326;53.660;10.200;2023-12-20T01:09:07;7.95;;;2.80;;
20336;SDS011;10326;53.660;10.200;2023-12-20T01:11:34;9.50;;;2.22;;
20336;SDS011;10326;53.660;10.200;2023-12-20T01:14:02;8.27;;;2.65;;
20336;SDS011;10326;53.660;10.200;2023-12-20T01:16:29;8.35;;;2.42;;
20336;SDS011;10326;53.660;10.200;2023-12-20T01:18:56;6.07;;;1.98;;
20336;SDS011;10326;53.660;10.200;2023-12-20T01:21:23;6.22;;;1.80;;
20336;SDS011;10326;53.660;10.200;2023-12-20T01:23:50;7.97;;;1.90;;
20336;SDS011;10326;53.660;10.200;2023-12-20T01:26:17;8.70;;;2.30;;
20336;SDS011;10326;53.660;10.200;2023-12-20T01:28:44;10.15;;;2.08;;
20336;SDS011;10326;53.660;10.200;2023-12-20T01:31:13;9.38;;;2.40;;
20336;SDS011;10326;53.660;10.200;2023-12-20T01:33:40;9.13;;;2.10;;
20336;SDS011;10326;53.660;10.200;2023-12-20T01:36:07;9.77;;;2.45;;
20336;SDS011;10326;53.660;10.200;2023-12-20T01:38:34;11.05;;;2.15;;
20336;SDS011;10326;53.660;10.200;2023-12-20T01:41:01;8.95;;;2.55;;
20336;SDS011;10326;53.660;10.200;2023-12-20T01:43:29;10.07;;;2.17;;
20336;SDS011;10326;53.660;10.200;2023-12-20T01:45:56;9.27;;;2.10;;
20336;SDS011;10326;53.660;10.200;2023-12-20T01:48:25;9.00;;;2.05;;
20336;SDS011;10326;53.660;10.200;2023-12-20T01:50:53;7.57;;;2.05;;
20336;SDS011;10326;53.660;10.200;2023-12-20T01:53:21;7.03;;;1.90;;
20336;SDS011;10326;53.660;10.200;2023-12-20T01:55:52;8.88;;;1.73;;
20336;SDS011;10326;53.660;10.200;2023-12-20T01:58:22;7.72;;;2.05;;
20336;SDS011;10326;53.660;10.200;2023-12-20T02:00:50;13.20;;;2.40;;
20336;SDS011;10326;53.660;10.200;2023-12-20T02:03:17;11.50;;;2.60;;
20336;SDS011;10326;53.660;10.200;2023-12-20T02:05:46;10.55;;;2.15;;
20336;SDS011;10326;53.660;10.200;2023-12-20T02:08:14;7.57;;;2.10;;
20336;SDS011;10326;53.660;10.200;2023-12-20T02:10:41;8.55;;;2.00;;
20336;SDS011;10326;53.660;10.200;2023-12-20T02:13:08;13.05;;;2.42;;
20336;SDS011;10326;53.660;10.200;2023-12-20T02:15:35;6.25;;;2.03;;
20336;SDS011;10326;53.660;10.200;2023-12-20T02:18:03;12.75;;;2.67;;
20336;SDS011;10326;53.660;10.200;2023-12-20T02:20:30;10.27;;;2.25;;
20336;SDS011;10326;53.660;10.200;2023-12-20T02:22:59;8.23;;;2.20;;
20336;SDS011;10326;53.660;10.200;2023-12-20T02:25:26;8.18;;;2.47;;
20336;SDS011;10326;53.660;10.200;2023-12-20T02:27:53;9.10;;;2.97;;
20336;SDS011;10326;53.660;10.200;2023-12-20T02:30:21;7.50;;;2.03;;
20336;SDS011;10326;53.660;10.200;2023-12-20T02:32:48;9.02;;;2.30;;
20336;SDS011;10326;53.660;10.200;2023-12-20T02:35:16;7.45;;;2.13;;
20336;SDS011;10326;53.660;10.200;2023-12-20T02:37:43;7.82;;;2.30;;
20336;SDS011;10326;53.660;10.200;2023-12-20T02:40:11;9.55;;;2.60;;
20336;SDS011;10326;53.660;10.200;2023-12-20T02:42:38;6.05;;;2.20;;
20336;SDS011;10326;53.660;10.200;2023-12-20T02:45:06;10.23;;;2.15;;
20336;SDS011;10326;53.660;10.200;2023-12-20T02:47:34;6.47;;;2.10;;
20336;SDS011;10326;53.660;10.200;2023-12-20T02:50:01;8.07;;;1.90;;
20336;SDS011;10326;53.660;10.200;2023-12-20T02:52:28;9.85;;;2.65;;
20336;SDS011;10326;53.660;10.200;2023-12-20T02:54:55;11.77;;;2.50;;
20336;SDS011;10326;53.660;10.200;2023-12-20T02:57:23;10.10;;;2.22;;
20336;SDS011;10326;53.660;10.200;2023-12-20T02:59:50;7.70;;;2.33;;
20336;SDS011;10326;53.660;10.200;2023-12-20T03:02:17;10.05;;;2.38;;
20336;SDS011;10326;53.660;10.200;2023-12-20T03:04:44;6.93;;;2.28;;
20336;SDS011;10326;53.660;10.200;2023-12-20T03:07:11;8.48;;;2.05;;
20336;SDS011;10326;53.660;10.200;2023-12-20T03:09:38;6.95;;;2.00;;
20336;SDS011;10326;53.660;10.200;2023-12-20T03:12:05;7.65;;;2.40;;
20336;SDS011;10326;53.660;10.200;2023-12-20T03:14:34;7.55;;;2.00;;
20336;SDS011;10326;53.660;10.200;2023-12-20T03:17:01;10.98;;;2.40;;
20336;SDS011;10326;53.660;10.200;2023-12-20T03:19:28;9.18;;;2.50;;
20336;SDS011;10326;53.660;10.200;2023-12-20T03:21:55;10.40;;;2.30;;
20336;SDS011;10326;53.660;10.200;2023-12-20T03:24:21;8.13;;;2.45;;
20336;SDS011;10326;53.660;10.200;2023-12-20T03:26:48;7.82;;;2.40;;
20336;SDS011;10326;53.660;10.200;2023-12-20T03:29:15;8.00;;;2.30;;
20336;SDS011;10326;53.660;10.200;2023-12-20T03:31:44;10.20;;;2.20;;
20336;SDS011;10326;53.660;10.200;2023-12-20T03:34:11;6.70;;;2.30;;
20336;SDS011;10326;53.660;10.200;2023-12-20T03:36:38;8.02;;;2.70;;
20336;SDS011;10326;53.660;10.200;2023-12-20T03:39:05;7.75;;;2.50;;
20336;SDS011;10326;53.660;10.200;2023-12-20T03:41:32;8.98;;;2.53;;
20336;SDS011;10326;53.660;10.200;2023-12-20T03:43:59;8.35;;;2.40;;
20336;SDS011;10326;53.660;10.200;2023-12-20T03:46:26;7.32;;;2.70;;
20336;SDS011;10326;53.660;10.200;2023-12-20T03:48:54;9.82;;;2.70;;
20336;SDS011;10326;53.660;10.200;2023-12-20T03:51:21;8.80;;;2.35;;
20336;SDS011;10326;53.660;10.200;2023-12-20T03:53:48;8.55;;;2.60;;
20336;SDS011;10326;53.660;10.200;2023-12-20T03:56:15;7.25;;;2.47;;
20336;SDS011;10326;53.660;10.200;2023-12-20T03:58:41;6.78;;;1.80;;
20336;SDS011;10326;53.660;10.200;2023-12-20T04:01:09;7.05;;;2.75;;
20336;SDS011;10326;53.660;10.200;2023-12-20T04:03:37;7.63;;;2.05;;
20336;SDS011;10326;53.660;10.200;2023-12-20T04:06:06;8.60;;;2.67;;
20336;SDS011;10326;53.660;10.200;2023-12-20T04:08:33;8.80;;;2.30;;
20336;SDS011;10326;53.660;10.200;2023-12-20T04:11:00;5.65;;;1.90;;
20336;SDS011;10326;53.660;10.200;2023-12-20T04:13:27;6.32;;;2.00;;
20336;SDS011;10326;53.660;10.200;2023-12-20T04:15:54;7.40;;;2.25;;
20336;SDS011;10326;53.660;10.200;2023-12-20T04:18:21;7.53;;;2.47;;
20336;SDS011;10326;53.660;10.200;2023-12-20T04:20:48;7.90;;;2.00;;
20336;SDS011;10326;53.660;10.200;2023-12-20T04:23:18;8.95;;;2.20;;
20336;SDS011;10326;53.660;10.200;2023-12-20T04:25:45;8.82;;;2.88;;
20336;SDS011;10326;53.660;10.200;2023-12-20T04:28:12;7.10;;;1.85;;
20336;SDS011;10326;53.660;10.200;2023-12-20T04:30:39;5.68;;;2.00;;
20336;SDS011;10326;53.660;10.200;2023-12-20T04:33:06;9.07;;;2.40;;
20336;SDS011;10326;53.660;10.200;2023-12-20T04:35:33;6.15;;;1.92;;
20336;SDS011;10326;53.660;10.200;2023-12-20T04:37:59;9.45;;;2.47;;
20336;SDS011;10326;53.660;10.200;2023-12-20T04:40:28;7.80;;;2.13;;
20336;SDS011;10326;53.660;10.200;2023-12-20T04:42:55;6.88;;;2.10;;
20336;SDS011;10326;53.660;10.200;2023-12-20T04:45:22;7.75;;;2.50;;
20336;SDS011;10326;53.660;10.200;2023-12-20T04:47:50;7.72;;;2.33;;
20336;SDS011;10326;53.660;10.200;2023-12-20T04:50:17;8.43;;;2.08;;
20336;SDS011;10326;53.660;10.200;2023-12-20T04:52:44;8.75;;;2.50;;
20336;SDS011;10326;53.660;10.200;2023-12-20T04:55:12;8.65;;;2.13;;
20336;SDS011;10326;53.660;10.200;2023-12-20T04:57:40;7.68;;;2.25;;
20336;SDS011;10326;53.660;10.200;2023-12-20T05:00:08;8.25;;;1.92;;
20336;SDS011;10326;53.660;10.200;2023-12-20T05:02:37;9.23;;;2.38;;
20336;SDS011;10326;53.660;10.200;2023-12-20T05:05:04;6.88;;;1.95;;
20336;SDS011;10326;53.660;10.200;2023-12-20T05:07:31;7.93;;;2.10;;
20336;SDS011;10326;53.660;10.200;2023-12-20T05:09:58;10.25;;;2.40;;
20336;SDS011;10326;53.660;10.200;2023-12-20T05:12:25;10.48;;;3.03;;
20336;SDS011;10326;53.660;10.200;2023-12-20T05:14:54;13.95;;;2.63;;
20336;SDS011;10326;53.660;10.200;2023-12-20T05:17:21;7.95;;;2.30;;
20336;SDS011;10326;53.660;10.200;2023-12-20T05:19:47;6.95;;;2.22;;
20336;SDS011;10326;53.660;10.200;2023-12-20T05:22:14;7.65;;;2.40;;
20336;SDS011;10326;53.660;10.200;2023-12-20T05:24:42;11.45;;;3.08;;
20336;SDS011;10326;53.660;10.200;2023-12-20T05:27:09;8.95;;;2.50;;
20336;SDS011;10326;53.660;10.200;2023-12-20T05:29:36;9.82;;;2.50;;
20336;SDS011;10326;53.660;10.200;2023-12-20T05:32:05;7.05;;;2.10;;
20336;SDS011;10326;53.660;10.200;2023-12-20T05:34:32;10.52;;;2.60;;
20336;SDS011;10326;53.660;10.200;2023-12-20T05:36:59;8.80;;;2.85;;
20336;SDS011;10326;53.660;10.200;2023-12-20T05:39:26;9.27;;;3.03;;
20336;SDS011;10326;53.660;10.200;2023-12-20T05:41:53;7.28;;;2.58;;
20336;SDS011;10326;53.660;10.200;2023-12-20T05:44:20;10.52;;;2.10;;
20336;SDS011;10326;53.660;10.200;2023-12-20T05:46:47;9.48;;;2.58;;
20336;SDS011;10326;53.660;10.200;2023-12-20T05:49:16;7.72;;;2.95;;
20336;SDS011;10326;53.660;10.200;2023-12-20T05:51:43;8.85;;;2.90;;
20336;SDS011;10326;53.660;10.200;2023-12-20T05:54:09;7.70;;;2.53;;
20336;SDS011;10326;53.660;10.200;2023-12-20T05:56:37;7.97;;;2.60;;
20336;SDS011;10326;53.660;10.200;2023-12-20T05:59:04;10.65;;;2.92;;
20336;SDS011;10326;53.660;10.200;2023-12-20T06:01:30;10.00;;;2.30;;
20336;SDS011;10326;53.660;10.200;2023-12-20T06:03:57;10.70;;;2.72;;
20336;SDS011;10326;53.660;10.200;2023-12-20T06:06:26;6.72;;;2.92;;
20336;SDS011;10326;53.660;10.200;2023-12-20T06:08:53;8.73;;;2.65;;
20336;SDS011;10326;53.660;10.200;2023-12-20T06:11:20;7.22;;;3.03;;
20336;SDS011;10326;53.660;10.200;2023-12-20T06:13:47;8.23;;;3.40;;
20336;SDS011;10326;53.660;10.200;2023-12-20T06:16:17;7.90;;;2.85;;
20336;SDS011;10326;53.660;10.200;2023-12-20T06:18:44;9.18;;;3.03;;
20336;SDS011;10326;53.660;10.200;2023-12-20T06:21:11;7.15;;;2.53;;
20336;SDS011;10326;53.660;10.200;2023-12-20T06:23:40;9.23;;;3.00;;
20336;SDS011;10326;53.660;10.200;2023-12-20T06:26:07;7.10;;;2.58;;
20336;SDS011;10326;53.660;10.200;2023-12-20T06:28:34;7.43;;;2.70;;
20336;SDS011;10326;53.660;10.200;2023-12-20T06:31:01;11.13;;;3.10;;
20336;SDS011;10326;53.660;10.200;2023-12-20T06:33:29;9.77;;;2.83;;
20336;SDS011;10326;53.660;10.200;2023-12-20T06:35:56;8.50;;;2.65;;
20336;SDS011;10326;53.660;10.200;2023-12-20T06:38:23;11.65;;;2.88;;
20336;SDS011;10326;53.660;10.200;2023-12-20T06:40:51;11.52;;;3.30;;
20336;SDS011;10326;53.660;10.200;2023-12-20T06:43:18;9.30;;;2.95;;
20336;SDS011;10326;53.660;10.200;2023-12-20T06:45:45;10.88;;;2.78;;
20336;SDS011;10326;53.660;10.200;2023-12-20T06:48:12;12.30;;;2.90;;
20336;SDS011;10326;53.660;10.200;2023-12-20T06:50:39;11.45;;;3.58;;
20336;SDS011;10326;53.660;10.200;2023-12-20T06:53:06;10.95;;;4.18;;
20336;SDS011;10326;53.660;10.200;2023-12-20T06:55:33;10.75;;;3.15;;
20336;SDS011;10326;53.660;10.200;2023-12-20T06:58:02;8.38;;;3.00;;
20336;SDS011;10326;53.660;10.200;2023-12-20T07:00:30;9.15;;;2.80;;
20336;SDS011;10326;53.660;10.200;2023-12-20T07:02:58;10.73;;;2.90;;
20336;SDS011;10326;53.660;10.200;2023-12-20T07:05:25;12.40;;;3.38;;
20336;SDS011;10326;53.660;10.200;2023-12-20T07:07:52;11.48;;;2.53;;
20336;SDS011;10326;53.660;10.200;2023-12-20T07:10:19;9.00;;;2.92;;
20336;SDS011;10326;53.660;10.200;2023-12-20T07:12:46;10.63;;;3.30;;
20336;SDS011;10326;53.660;10.200;2023-12-20T07:15:15;10.85;;;2.63;;
20336;SDS011;10326;53.660;10.200;2023-12-20T07:17:43;11.90;;;3.05;;
20336;SDS011;10326;53.660;10.200;2023-12-20T07:20:10;7.95;;;2.75;;
20336;SDS011;10326;53.660;10.200;2023-12-20T07:22:38;9.40;;;3.17;;
20336;SDS011;10326;53.660;10.200;2023-12-20T07:25:06;11.43;;;2.80;;
20336;SDS011;10326;53.660;10.200;2023-12-20T07:27:33;8.55;;;3.20;;
20336;SDS011;10326;53.660;10.200;2023-12-20T07:30:00;13.73;;;3.25;;
20336;SDS011;10326;53.660;10.200;2023-12-20T07:32:28;15.35;;;3.38;;
20336;SDS011;10326;53.660;10.200;2023-12-20T07:34:55;9.30;;;2.53;;
20336;SDS011;10326;53.660;10.200;2023-12-20T07:37:22;10.07;;;4.00;;
20336;SDS011;10326;53.660;10.200;2023-12-20T07:39:49;11.02;;;4.03;;
20336;SDS011;10326;53.660;10.200;2023-12-20T07:42:16;12.50;;;4.18;;
20336;SDS011;10326;53.660;10.200;2023-12-20T07:44:43;10.32;;;3.30;;
20336;SDS011;10326;53.660;10.200;2023-12-20T07:47:11;16.48;;;4.38;;
20336;SDS011;10326;53.660;10.200;2023-12-20T07:49:42;11.45;;;3.95;;
20336;SDS011;10326;53.660;10.200;2023-12-20T07:52:09;10.88;;;3.10;;
20336;SDS011;10326;53.660;10.200;2023-12-20T07:54:36;9.77;;;3.10;;
20336;SDS011;10326;53.660;10.200;2023-12-20T07:57:03;13.05;;;3.45;;
20336;SDS011;10326;53.660;10.200;2023-12-20T07:59:30;10.48;;;3.15;;
20336;SDS011;10326;53.660;10.200;2023-12-20T08:01:57;12.27;;;3.08;;
20336;SDS011;10326;53.660;10.200;2023-12-20T08:04:24;11.38;;;3.10;;
20336;SDS011;10326;53.660;10.200;2023-12-20T08:06:52;10.43;;;2.95;;
20336;SDS011;10326;53.660;10.200;2023-12-20T08:09:19;11.48;;;3.47;;
20336;SDS011;10326;53.660;10.200;2023-12-20T08:11:47;9.45;;;3.00;;
20336;SDS011;10326;53.660;10.200;2023-12-20T08:14:14;9.02;;;2.95;;
20336;SDS011;10326;53.660;10.200;2023-12-20T08:16:42;13.65;;;3.03;;
20336;SDS011;10326;53.660;10.200;2023-12-20T08:19:08;12.25;;;3.33;;
20336;SDS011;10326;53.660;10.200;2023-12-20T08:21:36;11.43;;;3.03;;
20336;SDS011;10326;53.660;10.200;2023-12-20T08:24:04;10.38;;;3.47;;
20336;SDS011;10326;53.660;10.200;2023-12-20T08:26:32;10.85;;;3.30;;
20336;SDS011;10326;53.660;10.200;2023-12-20T08:28:59;14.43;;;3.53;;
20336;SDS011;10326;53.660;10.200;2023-12-20T08:31:26;10.98;;;3.13;;
20336;SDS011;10326;53.660;10.200;2023-12-20T08:33:53;9.07;;;2.95;;
20336;SDS011;10326;53.660;10.200;2023-12-20T08:36:20;10.20;;;2.70;;
20336;SDS011;10326;53.660;10.200;2023-12-20T08:38:48;10.57;;;2.70;;
20336;SDS011;10326;53.660;10.200;2023-12-20T08:41:16;11.35;;;3.10;;
20336;SDS011;10326;53.660;10.200;2023-12-20T08:43:44;14.27;;;3.10;;
20336;SDS011;10326;53.660;10.200;2023-12-20T08:46:11;9.43;;;2.85;;
20336;SDS011;10326;53.660;10.200;2023-12-20T08:48:39;11.45;;;3.35;;
20336;SDS011;10326;53.660;10.200;2023-12-20T08:51:06;11.15;;;2.95;;
20336;SDS011;10326;53.660;10.200;2023-12-20T08:53:33;10.23;;;3.20;;
20336;SDS011;10326;53.660;10.200;2023-12-20T08:56:00;13.00;;;3.00;;
20336;SDS011;10326;53.660;10.200;2023-12-20T08:58:29;10.90;;;3.58;;
20336;SDS011;10326;53.660;10.200;2023-12-20T09:00:56;12.20;;;3.30;;
20336;SDS011;10326;53.660;10.200;2023-12-20T09:03:23;9.05;;;3.15;;
20336;SDS011;10326;53.660;10.200;2023-12-20T09:05:51;9.98;;;3.05;;
20336;SDS011;10326;53.660;10.200;2023-12-20T09:08:18;11.80;;;2.80;;
20336;SDS011;10326;53.660;10.200;2023-12-20T09:10:45;11.18;;;3.13;;
20336;SDS011;10326;53.660;10.200;2023-12-20T09:13:12;13.77;;;3.28;;
20336;SDS011;10326;53.660;10.200;2023-12-20T09:15:40;10.90;;;2.92;;
20336;SDS011;10326;53.660;10.200;2023-12-20T09:18:07;8.32;;;2.83;;
20336;SDS011;10326;53.660;10.200;2023-12-20T09:20:34;9.15;;;3.60;;
20336;SDS011;10326;53.660;10.200;2023-12-20T09:23:02;9.85;;;2.80;;
20336;SDS011;10326;53.660;10.200;2023-12-20T09:25:29;10.75;;;3.22;;
20336;SDS011;10326;53.660;10.200;2023-12-20T09:27:56;5.93;;;2.58;;
20336;SDS011;10326;53.660;10.200;2023-12-20T09:30:23;9.80;;;2.88;;
20336;SDS011;10326;53.660;10.200;2023-12-20T09:32:52;8.43;;;2.33;;
20336;SDS011;10326;53.660;10.200;2023-12-20T09:35:19;4.72;;;1.50;;
20336;SDS011;10326;53.660;10.200;2023-12-20T09:37:46;7.35;;;1.55;;
20336;SDS011;10326;53.660;10.200;2023-12-20T09:40:13;3.60;;;1.67;;
20336;SDS011;10326;53.660;10.200;2023-12-20T09:42:44;4.47;;;1.52;;
20336;SDS011;10326;53.660;10.200;2023-12-20T09:45:20;5.22;;;1.55;;
20336;SDS011;10326;53.660;10.200;2023-12-20T09:47:48;4.30;;;1.90;;
20336;SDS011;10326;53.660;10.200;2023-12-20T09:50:17;5.38;;;1.42;;
20336;SDS011;10326;53.660;10.200;2023-12-20T09:52:46;3.78;;;1.63;;
20336;SDS011;10326;53.660;10.200;2023-12-20T09:55:17;3.28;;;1.40;;
20336;SDS011;10326;53.660;10.200;2023-12-20T09:57:45;2.80;;;1.40;;
20336;SDS011;10326;53.660;10.200;2023-12-20T10:00:12;3.97;;;1.35;;
20336;SDS011;10326;53.660;10.200;2023-12-20T10:02:42;1.98;;;1.10;;
20336;SDS011;10326;53.660;10.200;2023-12-20T10:05:18;2.90;;;0.98;;
20336;SDS011;10326;53.660;10.200;2023-12-20T10:07:46;3.90;;;1.20;;
20336;SDS011;10326;53.660;10.200;2023-12-20T10:10:14;3.20;;;0.93;;
20336;SDS011;10326;53.660;10.200;2023-12-20T10:12:41;2.72;;;1.02;;
20336;SDS011;10326;53.660;10.200;2023-12-20T10:15:27;3.55;;;1.20;;
20336;SDS011;10326;53.660;10.200;2023-12-20T10:17:54;2.03;;;0.90;;
20336;SDS011;10326;53.660;10.200;2023-12-20T10:20:23;5.22;;;1.30;;
20336;SDS011;10326;53.660;10.200;2023-12-20T10:22:50;2.15;;;1.00;;
20336;SDS011;10326;53.660;10.200;2023-12-20T10:25:18;3.65;;;0.98;;
20336;SDS011;10326;53.660;10.200;2023-12-20T10:27:46;2.03;;;0.88;;
20336;SDS011;10326;53.660;10.200;2023-12-20T10:30:13;2.15;;;0.90;;
20336;SDS011;10326;53.660;10.200;2023-12-20T10:32:40;3.38;;;1.25;;
20336;SDS011;10326;53.660;10.200;2023-12-20T10:35:08;3.45;;;1.20;;
20336;SDS011;10326;53.660;10.200;2023-12-20T10:37:37;3.42;;;1.73;;
20336;SDS011;10326;53.660;10.200;2023-12-20T10:40:04;4.63;;;1.33;;
20336;SDS011;10326;53.660;10.200;2023-12-20T10:42:33;4.90;;;1.60;;
20336;SDS011;10326;53.660;10.200;2023-12-20T10:45:02;4.20;;;1.58;;
20336;SDS011;10326;53.660;10.200;2023-12-20T10:47:30;6.35;;;1.50;;
20336;SDS011;10326;53.660;10.200;2023-12-20T10:49:59;3.38;;;1.65;;
20336;SDS011;10326;53.660;10.200;2023-12-20T10:52:27;4.30;;;1.60;;
20336;SDS011;10326;53.660;10.200;2023-12-20T10:54:59;3.80;;;1.30;;
20336;SDS011;10326;53.660;10.200;2023-12-20T10:57:26;3.92;;;1.60;;
20336;SDS011;10326;53.660;10.200;2023-12-20T10:59:54;4.15;;;1.30;;
20336;SDS011;10326;53.660;10.200;2023-12-20T11:02:25;10.65;;;1.77;;
20336;SDS011;10326;53.660;10.200;2023-12-20T11:04:55;5.28;;;1.30;;
20336;SDS011;10326;53.660;10.200;2023-12-20T11:07:33;4.78;;;1.40;;
20336;SDS011;10326;53.660;10.200;2023-12-20T11:10:10;9.45;;;1.63;;
20336;SDS011;10326;53.660;10.200;2023-12-20T11:12:46;5.20;;;1.45;;
20336;SDS011;10326;53.660;10.200;2023-12-20T11:15:19;4.97;;;1.58;;
20336;SDS011;10326;53.660;10.200;2023-12-20T11:17:47;3.58;;;1.30;;
20336;SDS011;10326;53.660;10.200;2023-12-20T11:20:22;6.20;;;1.67;;
20336;SDS011;10326;53.660;10.200;2023-12-20T11:22:54;3.75;;;1.20;;
20336;SDS011;10326;53.660;10.200;2023-12-20T11:25:22;2.17;;;1.20;;
20336;SDS011;10326;53.660;10.200;2023-12-20T11:30:46;3.53;;;1.30;;
20336;SDS011;10326;53.660;10.200;2023-12-20T11:33:14;3.15;;;1.20;;
20336;SDS011;10326;53.660;10.200;2023-12-20T11:35:41;2.97;;;1.13;;
20336;SDS011;10326;53.660;10.200;2023-12-20T11:38:09;3.90;;;1.17;;
20336;SDS011;10326;53.660;10.200;2023-12-20T11:40:37;4.20;;;1.23;;
20336;SDS011;10326;53.660;10.200;2023-12-20T11:43:04;3.95;;;1.40;;
20336;SDS011;10326;53.660;10.200;2023-12-20T11:45:31;6.05;;;1.77;;
20336;SDS011;10326;53.660;10.200;2023-12-20T11:48:00;7.70;;;1.92;;
20336;SDS011;10326;53.660;10.200;2023-12-20T11:50:28;7.32;;;2.47;;
20336;SDS011;10326;53.660;10.200;2023-12-20T11:52:56;8.18;;;2.47;;
20336;SDS011;10326;53.660;10.200;2023-12-20T11:55:23;7.25;;;2.42;;
20336;SDS011;10326;53.660;10.200;2023-12-20T11:57:52;11.60;;;2.05;;
20336;SDS011;10326;53.660;10.200;2023-12-20T12:00:19;6.90;;;2.50;;
20336;SDS011;10326;53.660;10.200;2023-12-20T12:02:56;7.35;;;2.47;;
20336;SDS011;10326;53.660;10.200;2023-12-20T12:05:24;5.93;;;2.15;;
20336;SDS011;10326;53.660;10.200;2023-12-20T12:07:51;9.10;;;2.42;;
20336;SDS011;10326;53.660;10.200;2023-12-20T12:10:19;6.43;;;2.47;;
20336;SDS011;10326;53.660;10.200;2023-12-20T12:12:46;9.68;;;3.38;;
20336;SDS011;10326;53.660;10.200;2023-12-20T12:15:15;7.88;;;2.65;;
20336;SDS011;10326;53.660;10.200;2023-12-20T12:17:42;9.10;;;2.35;;
20336;SDS011;10326;53.660;10.200;2023-12-20T12:20:09;7.65;;;2.22;;
20336;SDS011;10326;53.660;10.200;2023-12-20T12:22:37;7.45;;;2.33;;
20336;SDS011;10326;53.660;10.200;2023-12-20T12:25:11;6.82;;;1.90;;
20336;SDS011;10326;53.660;10.200;2023-12-20T12:27:39;8.45;;;2.60;;
20336;SDS011;10326;53.660;10.200;2023-12-20T12:30:08;9.20;;;2.40;;
20336;SDS011;10326;53.660;10.200;2023-12-20T12:32:39;6.15;;;2.65;;
20336;SDS011;10326;53.660;10.200;2023-12-20T12:35:07;11.02;;;2.58;;
20336;SDS011;10326;53.660;10.200;2023-12-20T12:37:36;10.48;;;2.85;;
20336;SDS011;10326;53.660;10.200;2023-12-20T12:40:05;13.00;;;2.53;;
20336;SDS011;10326;53.660;10.200;2023-12-20T12:42:35;13.38;;;2.95;;
20336;SDS011;10326;53.660;10.200;2023-12-20T12:45:03;8.13;;;2.47;;
20336;SDS011;10326;53.660;10.200;2023-12-20T12:47:31;12.10;;;2.70;;
20336;SDS011;10326;53.660;10.200;2023-12-20T12:49:59;9.68;;;2.88;;
20336;SDS011;10326;53.660;10.200;2023-12-20T12:52:26;11.93;;;2.85;;
20336;SDS011;10326;53.660;10.200;2023-12-20T12:54:53;12.85;;;3.20;;
20336;SDS011;10326;53.660;10.200;2023-12-20T12:57:20;11.25;;;2.90;;
20336;SDS011;10326;53.660;10.200;2023-12-20T12:59:48;13.27;;;3.05;;
20336;SDS011;10326;53.660;10.200;2023-12-20T13:02:15;10.80;;;3.22;;
20336;SDS011;10326;53.660;10.200;2023-12-20T13:04:43;9.32;;;2.70;;
20336;SDS011;10326;53.660;10.200;2023-12-20T13:07:12;12.32;;;3.47;;
20336;SDS011;10326;53.660;10.200;2023-12-20T13:09:40;13.07;;;3.38;;
20336;SDS011;10326;53.660;10.200;2023-12-20T13:12:07;12.05;;;3.00;;
20336;SDS011;10326;53.660;10.200;2023-12-20T13:14:40;10.20;;;3.63;;
20336;SDS011;10326;53.660;10.200;2023-12-20T13:17:07;11.90;;;3.45;;
20336;SDS011;10326;53.660;10.200;2023-12-20T13:19:34;13.55;;;3.30;;
20336;SDS011;10326;53.660;10.200;2023-12-20T13:22:00;11.40;;;3.38;;
20336;SDS011;10326;53.660;10.200;2023-12-20T13:24:29;16.15;;;3.20;;
20336;SDS011;10326;53.660;10.200;2023-12-20T13:26:58;11.63;;;2.90;;
20336;SDS011;10326;53.660;10.200;2023-12-20T13:29:25;13.75;;;2.83;;
20336;SDS011;10326;53.660;10.200;2023-12-20T13:31:52;13.07;;;3.30;;
20336;SDS011;10326;53.660;10.200;2023-12-20T13:34:19;11.23;;;3.00;;
20336;SDS011;10326;53.660;10.200;2023-12-20T13:36:46;10.82;;;3.42;;
20336;SDS011;10326;53.660;10.200;2023-12-20T13:39:15;12.13;;;3.13;;
20336;SDS011;10326;53.660;10.200;2023-12-20T13:41:44;14.60;;;3.35;;
20336;SDS011;10326;53.660;10.200;2023-12-20T13:44:11;9.85;;;3.58;;
20336;SDS011;10326;53.660;10.200;2023-12-20T13:46:40;12.80;;;3.55;;
20336;SDS011;10326;53.660;10.200;2023-12-20T13:49:07;13.57;;;3.80;;
20336;SDS011;10326;53.660;10.200;2023-12-20T13:51:34;9.77;;;3.47;;
20336;SDS011;10326;53.660;10.200;2023-12-20T13:54:01;12.50;;;3.60;;
20336;SDS011;10326;53.660;10.200;2023-12-20T13:56:28;13.18;;;3.72;;
20336;SDS011;10326;53.660;10.200;2023-12-20T13:58:56;11.90;;;3.17;;
20336;SDS011;10326;53.660;10.200;2023-12-20T14:01:24;10.65;;;4.13;;
20336;SDS011;10326;53.660;10.200;2023-12-20T14:03:51;12.85;;;3.78;;
20336;SDS011;10326;53.660;10.200;2023-12-20T14:06:18;11.35;;;3.88;;
20336;SDS011;10326;53.660;10.200;2023-12-20T14:08:45;13.38;;;3.80;;
20336;SDS011;10326;53.660;10.200;2023-12-20T14:11:13;11.65;;;3.80;;
20336;SDS011;10326;53.660;10.200;2023-12-20T14:13:40;12.10;;;3.65;;
20336;SDS011;10326;53.660;10.200;2023-12-20T14:16:09;11.48;;;4.35;;
20336;SDS011;10326;53.660;10.200;2023-12-20T14:18:37;12.50;;;3.88;;
20336;SDS011;10326;53.660;10.200;2023-12-20T14:21:05;11.95;;;4.65;;
20336;SDS011;10326;53.660;10.200;2023-12-20T14:23:32;15.02;;;4.57;;
20336;SDS011;10326;53.660;10.200;2023-12-20T14:25:59;11.93;;;4.28;;
20336;SDS011;10326;53.660;10.200;2023-12-20T14:28:27;13.70;;;3.60;;
20336;SDS011;10326;53.660;10.200;2023-12-20T14:30:54;12.30;;;4.03;;
20336;SDS011;10326;53.660;10.200;2023-12-20T14:33:23;10.73;;;4.13;;